Thunder radar more information blitzortung!


Radar de pluja more information rain snow radar


Visita la nostra xarxa de llocs de meteo:

Template documentation
and downloads

And another site



No particular awareness of the weather is required.    There are no Weather-warnings

Pagina Historial Weather Underground text

Diari Resum May 7, 2017 Unitats:  Mètric    Imperial   Tant
« Previous Dia
SegĂźent Dia »
Diari Setmana Mensual Anual Personalitzada
  Maxima: Minima: Media:
Temperatura: 24.9 °C 10.4 °C 16.6 °C
Punt de rosada: 12.0 °C 5.3 °C 9.7 °C
Humitat: 78 % 36 % 65 %
Wind Speed: 24.1 km/h 0.0 km/h 7.3 km/h
RĂ fegues de vent: 24.1 km/h - -
Vent:- - ESE
Pression baro: 1020.9 hPa 1016.8 hPa -
Precipitacions: 0.0 mm    
Historical Graphs
 
 
Dades de taula per May 7, 2017
Temps Temperatura Punt de rosada Pression baro Vent Wind Speed RĂ fegues de vent Humitat Rainfall Rate (Hourly)
00:01 14.8 °C 7.6 °C 1019.9 hPa ENE 5.8 km/h 5.8 km/h 62 % 0.0 mm
00:05 11.4 °C 5.9 °C 1019.9 hPa ENE 1.6 km/h 3.2 km/h 69 % 0.0 mm
00:06 14.7 °C 7.5 °C 1019.9 hPa NNE 7.4 km/h 7.4 km/h 62 % 0.0 mm
00:15 11.1 °C 5.8 °C 1019.9 hPa Calm   1.6 km/h 70 % 0.0 mm
00:25 11.0 °C 5.7 °C 1019.9 hPa Calm     70 % 0.0 mm
00:35 10.8 °C 5.7 °C 1019.9 hPa WSW 1.6 km/h 1.6 km/h 71 % 0.0 mm
00:45 10.6 °C 5.6 °C 1019.9 hPa WSW 1.6 km/h 3.2 km/h 71 % 0.0 mm
00:55 10.5 °C 5.3 °C 1019.9 hPa WSW 3.2 km/h 3.2 km/h 70 % 0.0 mm
01:05 10.7 °C 5.7 °C 1019.9 hPa WSW 1.6 km/h 3.2 km/h 71 % 0.0 mm
01:15 10.7 °C 6.1 °C 1019.9 hPa Calm   1.6 km/h 73 % 0.0 mm
01:25 10.6 °C 6.2 °C 1019.9 hPa Calm   1.6 km/h 74 % 0.0 mm
01:35 10.5 °C 6.1 °C 1019.9 hPa Calm   1.6 km/h 74 % 0.0 mm
01:45 10.4 °C 5.8 °C 1019.9 hPa North 1.6 km/h 1.6 km/h 73 % 0.0 mm
01:55 10.5 °C 5.4 °C 1019.9 hPa North 1.6 km/h 3.2 km/h 71 % 0.0 mm
02:05 10.5 °C 5.7 °C 1018.8 hPa Calm   4.8 km/h 72 % 0.0 mm
02:15 10.8 °C 5.7 °C 1018.8 hPa NNW 1.6 km/h 3.2 km/h 71 % 0.0 mm
02:25 10.9 °C 6.1 °C 1018.8 hPa Calm   1.6 km/h 72 % 0.0 mm
02:35 11.1 °C 6.1 °C 1018.8 hPa WSW 3.2 km/h 4.8 km/h 71 % 0.0 mm
02:45 11.0 °C 5.9 °C 1018.8 hPa WSW 3.2 km/h 6.4 km/h 71 % 0.0 mm
02:55 11.2 °C 6.3 °C 1019.9 hPa WSW 3.2 km/h 4.8 km/h 72 % 0.0 mm
03:05 11.4 °C 6.6 °C 1019.9 hPa SW 3.2 km/h 4.8 km/h 72 % 0.0 mm
03:15 12.1 °C 7.4 °C 1019.9 hPa Calm   3.2 km/h 73 % 0.0 mm
03:25 12.4 °C 7.5 °C 1019.9 hPa SW 3.2 km/h 3.2 km/h 72 % 0.0 mm
03:35 12.9 °C 8.2 °C 1020.9 hPa SW 1.6 km/h 3.2 km/h 73 % 0.0 mm
03:45 13.7 °C 8.7 °C 1020.9 hPa Calm   3.2 km/h 72 % 0.0 mm
03:55 14.4 °C 9.0 °C 1019.9 hPa SE 3.2 km/h 3.2 km/h 70 % 0.0 mm
04:05 14.8 °C 8.9 °C 1020.9 hPa East 1.6 km/h 4.8 km/h 68 % 0.0 mm
04:15 14.8 °C 8.5 °C 1020.9 hPa NE 4.8 km/h 4.8 km/h 66 % 0.0 mm
04:25 15.6 °C 9.1 °C 1020.9 hPa NE 4.8 km/h 6.4 km/h 65 % 0.0 mm
04:35 15.6 °C 8.8 °C 1020.9 hPa NE 3.2 km/h 6.4 km/h 64 % 0.0 mm
04:45 16.3 °C 9.2 °C 1020.9 hPa NE 4.8 km/h 4.8 km/h 63 % 0.0 mm
04:55 16.7 °C 9.4 °C 1020.9 hPa NW 3.2 km/h 4.8 km/h 62 % 0.0 mm
05:05 17.9 °C 10.0 °C 1020.9 hPa NW 1.6 km/h 4.8 km/h 60 % 0.0 mm
05:15 18.0 °C 9.3 °C 1020.9 hPa ENE 4.8 km/h 6.4 km/h 57 % 0.0 mm
05:25 18.3 °C 9.4 °C 1020.9 hPa ENE 1.6 km/h 4.8 km/h 56 % 0.0 mm
05:35 19.4 °C 10.1 °C 1019.9 hPa East 1.6 km/h 3.2 km/h 55 % 0.0 mm
05:45 19.7 °C 9.6 °C 1019.9 hPa SSW 3.2 km/h 4.8 km/h 52 % 0.0 mm
05:55 19.9 °C 9.7 °C 1019.9 hPa SSE 1.6 km/h 8.0 km/h 52 % 0.0 mm
06:05 19.8 °C 9.4 °C 1019.9 hPa SE 4.8 km/h 6.4 km/h 51 % 0.0 mm
06:15 19.6 °C 9.4 °C 1019.9 hPa SE 3.2 km/h 6.4 km/h 52 % 0.0 mm
06:25 20.0 °C 9.3 °C 1019.9 hPa SE 1.6 km/h 6.4 km/h 50 % 0.0 mm
06:35 20.1 °C 9.7 °C 1019.9 hPa East 1.6 km/h 6.4 km/h 51 % 0.0 mm
06:45 20.0 °C 9.3 °C 1019.9 hPa East 4.8 km/h 6.4 km/h 50 % 0.0 mm
06:55 20.2 °C 9.2 °C 1020.9 hPa ENE 1.6 km/h 4.8 km/h 49 % 0.0 mm
07:05 20.8 °C 9.7 °C 1020.9 hPa ENE 3.2 km/h 6.4 km/h 49 % 0.0 mm
07:15 20.8 °C 9.4 °C 1020.9 hPa East 8.0 km/h 8.0 km/h 48 % 0.0 mm
07:25 21.3 °C 9.5 °C 1019.9 hPa East 8.0 km/h 8.0 km/h 47 % 0.0 mm
07:35 21.1 °C 9.0 °C 1019.9 hPa ESE 8.0 km/h 8.0 km/h 46 % 0.0 mm
07:45 22.5 °C 9.9 °C 1019.9 hPa SE 3.2 km/h 4.8 km/h 45 % 0.0 mm
07:55 21.5 °C 8.7 °C 1019.9 hPa East 1.6 km/h 6.4 km/h 44 % 0.0 mm
08:05 22.1 °C 8.6 °C 1019.9 hPa East 4.8 km/h 8.0 km/h 42 % 0.0 mm
08:15 22.8 °C 9.2 °C 1019.9 hPa SE 4.8 km/h 6.4 km/h 42 % 0.0 mm
08:25 23.3 °C 8.9 °C 1019.9 hPa South 3.2 km/h 9.7 km/h 40 % 0.0 mm
08:35 22.8 °C 8.5 °C 1019.9 hPa ESE 4.8 km/h 8.0 km/h 40 % 0.0 mm
08:45 23.8 °C 9.0 °C 1019.9 hPa ESE 3.2 km/h 9.7 km/h 39 % 0.0 mm
08:55 24.0 °C 8.0 °C 1018.8 hPa SW 4.8 km/h 9.7 km/h 36 % 0.0 mm
09:05 24.4 °C 8.8 °C 1018.8 hPa SSW 3.2 km/h 8.0 km/h 37 % 0.0 mm
09:15 24.1 °C 8.5 °C 1018.8 hPa SSE 4.8 km/h 6.4 km/h 37 % 0.0 mm
09:25 24.2 °C 9.4 °C 1018.8 hPa SE 4.8 km/h 9.7 km/h 39 % 0.0 mm
09:35 24.9 °C 9.2 °C 1018.8 hPa SE 3.2 km/h 6.4 km/h 37 % 0.0 mm
09:45 24.5 °C 9.6 °C 1018.8 hPa SE 4.8 km/h 8.0 km/h 39 % 0.0 mm
09:55 24.3 °C 10.2 °C 1017.8 hPa SE 9.7 km/h 12.9 km/h 41 % 0.0 mm
10:05 24.4 °C 10.3 °C 1017.8 hPa ESE 4.8 km/h 9.7 km/h 41 % 0.0 mm
10:15 23.9 °C 10.2 °C 1017.8 hPa ESE 8.0 km/h 9.7 km/h 42 % 0.0 mm
10:25 23.3 °C 10.3 °C 1017.8 hPa ESE 11.3 km/h 16.1 km/h 44 % 0.0 mm
10:35 22.5 °C 10.6 °C 1017.8 hPa ESE 14.5 km/h 17.7 km/h 47 % 0.0 mm
10:45 22.0 °C 10.5 °C 1017.8 hPa ESE 14.5 km/h 17.7 km/h 48 % 0.0 mm
10:55 21.7 °C 10.8 °C 1017.8 hPa East 14.5 km/h 24.1 km/h 50 % 0.0 mm
11:05 21.2 °C 10.3 °C 1017.8 hPa East 8.0 km/h 16.1 km/h 50 % 0.0 mm
11:15 20.8 °C 10.9 °C 1017.8 hPa East 11.3 km/h 20.9 km/h 53 % 0.0 mm
11:25 20.6 °C 10.9 °C 1017.8 hPa ESE 12.9 km/h 14.5 km/h 54 % 0.0 mm
11:35 20.5 °C 11.4 °C 1017.8 hPa ESE 11.3 km/h 16.1 km/h 56 % 0.0 mm
11:45 20.8 °C 11.7 °C 1017.8 hPa ENE 9.7 km/h 12.9 km/h 56 % 0.0 mm
11:55 20.5 °C 11.7 °C 1017.8 hPa NE 14.5 km/h 16.1 km/h 57 % 0.0 mm
12:05 20.1 °C 11.6 °C 1016.8 hPa ENE 9.7 km/h 12.9 km/h 58 % 0.0 mm
12:15 19.8 °C 11.8 °C 1016.8 hPa East 16.1 km/h 20.9 km/h 60 % 0.0 mm
12:25 19.7 °C 11.9 °C 1017.8 hPa East 14.5 km/h 17.7 km/h 61 % 0.0 mm
12:35 19.5 °C 12.0 °C 1017.8 hPa East 12.9 km/h 14.5 km/h 62 % 0.0 mm
12:45 19.4 °C 11.9 °C 1017.8 hPa East 12.9 km/h 16.1 km/h 62 % 0.0 mm
17:49 19.3 °C 11.8 °C 1016.8 hPa East 9.3 km/h 10.0 km/h 62 % 0.0 mm
17:55 19.2 °C 11.7 °C 1016.8 hPa East 12.9 km/h 24.1 km/h 62 % 0.0 mm
18:00 19.1 °C 11.7 °C 1016.8 hPa ENE 13.0 km/h 13.0 km/h 62 % 0.0 mm
18:05 19.0 °C 11.6 °C 1016.8 hPa SE 20.4 km/h 20.4 km/h 62 % 0.0 mm
18:10 18.8 °C 11.8 °C 1016.8 hPa East 8.0 km/h 17.7 km/h 64 % 0.0 mm
18:15 18.8 °C 11.8 °C 1017.8 hPa East 13.0 km/h 13.0 km/h 64 % 0.0 mm
18:20 18.6 °C 11.7 °C 1017.8 hPa ENE 16.7 km/h 16.7 km/h 64 % 0.0 mm
18:25 18.6 °C 11.7 °C 1017.8 hPa ESE 16.7 km/h 16.7 km/h 64 % 0.0 mm
18:30 18.5 °C 11.8 °C 1017.8 hPa ESE 24.1 km/h 24.1 km/h 65 % 0.0 mm
18:35 18.3 °C 11.6 °C 1017.8 hPa ESE 16.7 km/h 16.7 km/h 65 % 0.0 mm
18:40 18.2 °C 11.4 °C 1017.8 hPa East 14.5 km/h 24.1 km/h 65 % 0.0 mm
18:45 18.1 °C 11.4 °C 1017.8 hPa ESE 11.3 km/h 20.9 km/h 65 % 0.0 mm
18:50 18.1 °C 11.4 °C 1017.8 hPa East 8.0 km/h 16.1 km/h 65 % 0.0 mm
18:55 18.0 °C 11.3 °C 1017.8 hPa East 20.4 km/h 20.4 km/h 65 % 0.0 mm
19:00 17.9 °C 11.2 °C 1017.8 hPa ENE 13.0 km/h 13.0 km/h 65 % 0.0 mm
19:05 17.7 °C 11.3 °C 1017.8 hPa SSE 18.5 km/h 18.5 km/h 66 % 0.0 mm
19:10 17.6 °C 11.2 °C 1017.8 hPa ENE 14.8 km/h 14.8 km/h 66 % 0.0 mm
19:15 17.6 °C 11.2 °C 1017.8 hPa ESE 11.1 km/h 11.9 km/h 66 % 0.0 mm
19:20 17.5 °C 11.3 °C 1017.8 hPa ESE 13.0 km/h 13.0 km/h 67 % 0.0 mm
19:21 17.5 °C 11.1 °C 1017.8 hPa ENE 13.0 km/h 13.0 km/h 66 % 0.0 mm
19:26 17.5 °C 11.1 °C 1017.8 hPa ESE 16.7 km/h 16.7 km/h 66 % 0.0 mm
19:30 13.8 °C 9.4 °C 1019.9 hPa NE 3.2 km/h 3.2 km/h 75 % 0.0 mm
19:31 17.5 °C 11.1 °C 1017.8 hPa ESE 9.3 km/h 9.3 km/h 66 % 0.0 mm
19:36 17.5 °C 11.1 °C 1017.8 hPa ENE 9.3 km/h 9.3 km/h 66 % 0.0 mm
19:40 13.7 °C 9.3 °C 1019.9 hPa NE 3.2 km/h 4.8 km/h 75 % 0.0 mm
19:41 17.3 °C 10.9 °C 1017.8 hPa ESE 13.0 km/h 13.0 km/h 66 % 0.0 mm
19:46 17.1 °C 10.9 °C 1017.8 hPa ESE 11.1 km/h 11.1 km/h 67 % 0.0 mm
19:50 13.7 °C 9.6 °C 1019.9 hPa NE 3.2 km/h 3.2 km/h 76 % 0.0 mm
19:51 16.9 °C 11.2 °C 1017.8 hPa ESE 13.0 km/h 13.0 km/h 69 % 0.0 mm
19:53 16.9 °C 11.2 °C 1017.8 hPa ESE 13.0 km/h 13.0 km/h 69 % 0.0 mm
19:58 16.8 °C 11.1 °C 1017.8 hPa ENE 19.5 km/h 19.5 km/h 69 % 0.0 mm
20:00 13.7 °C 9.6 °C 1019.9 hPa NNE 1.6 km/h 3.2 km/h 76 % 0.0 mm
20:03 16.8 °C 11.3 °C 1017.8 hPa ENE 14.8 km/h 14.8 km/h 70 % 0.0 mm
20:08 16.7 °C 11.2 °C 1017.8 hPa ESE 15.8 km/h 15.8 km/h 70 % 0.0 mm
20:10 13.7 °C 9.6 °C 1019.9 hPa NNE 3.2 km/h 4.8 km/h 76 % 0.0 mm
20:13 16.5 °C 11.0 °C 1017.8 hPa East 20.4 km/h 20.4 km/h 70 % 0.0 mm
20:18 16.5 °C 11.0 °C 1017.8 hPa ESE 14.8 km/h 14.8 km/h 70 % 0.0 mm
20:20 13.8 °C 9.7 °C 1018.8 hPa NNE 3.2 km/h 4.8 km/h 76 % 0.0 mm
20:23 16.5 °C 11.0 °C 1017.8 hPa ESE 11.1 km/h 11.1 km/h 70 % 0.0 mm
20:28 16.5 °C 11.2 °C 1018.8 hPa East 13.0 km/h 13.0 km/h 71 % 0.0 mm
20:30 13.7 °C 9.6 °C 1018.8 hPa NNE 3.2 km/h 3.2 km/h 76 % 0.0 mm
20:33 16.4 °C 11.3 °C 1018.8 hPa NE 9.3 km/h 9.3 km/h 72 % 0.0 mm
20:38 16.3 °C 11.2 °C 1018.8 hPa ESE 11.1 km/h 11.1 km/h 72 % 0.0 mm
20:40 13.6 °C 9.4 °C 1019.9 hPa NE 1.6 km/h 4.8 km/h 76 % 0.0 mm
20:43 16.1 °C 11.1 °C 1018.8 hPa East 9.3 km/h 9.3 km/h 72 % 0.0 mm
20:48 16.0 °C 10.9 °C 1018.8 hPa ENE 11.1 km/h 11.1 km/h 72 % 0.0 mm
20:50 13.5 °C 9.3 °C 1019.9 hPa NE 1.6 km/h 1.6 km/h 76 % 0.0 mm
20:53 15.9 °C 11.1 °C 1018.8 hPa ESE 16.7 km/h 16.7 km/h 73 % 0.0 mm
20:58 15.7 °C 11.1 °C 1018.8 hPa East 13.0 km/h 13.0 km/h 74 % 0.0 mm
21:00 13.4 °C 9.3 °C 1019.9 hPa Calm     76 % 0.0 mm
21:03 15.7 °C 11.1 °C 1018.8 hPa ESE 13.0 km/h 13.0 km/h 74 % 0.0 mm
21:08 15.6 °C 11.2 °C 1018.8 hPa ESE 14.5 km/h 14.5 km/h 75 % 0.0 mm
21:10 13.3 °C 9.2 °C 1019.9 hPa NNE 1.6 km/h 1.6 km/h 76 % 0.0 mm
21:13 15.5 °C 11.1 °C 1018.8 hPa NE 9.3 km/h 9.3 km/h 75 % 0.0 mm
21:18 15.5 °C 11.1 °C 1018.8 hPa ESE 14.8 km/h 14.8 km/h 75 % 0.0 mm
21:20 13.2 °C 9.1 °C 1019.9 hPa Calm   1.6 km/h 76 % 0.0 mm
21:23 15.4 °C 11.2 °C 1018.8 hPa East 10.0 km/h 10.0 km/h 76 % 0.0 mm
21:28 15.4 °C 11.0 °C 1019.9 hPa East 11.1 km/h 11.1 km/h 75 % 0.0 mm
21:30 13.0 °C 8.9 °C 1019.9 hPa Calm     76 % 0.0 mm
21:33 15.3 °C 11.1 °C 1019.9 hPa ESE 9.3 km/h 9.3 km/h 76 % 0.0 mm
21:38 15.3 °C 10.9 °C 1019.9 hPa ENE 9.3 km/h 9.3 km/h 75 % 0.0 mm
21:40 12.5 °C 8.4 °C 1019.9 hPa Calm     76 % 0.0 mm
21:43 15.3 °C 10.9 °C 1019.9 hPa ESE 7.9 km/h 7.9 km/h 75 % 0.0 mm
21:49 15.2 °C 10.8 °C 1019.9 hPa NE 11.1 km/h 11.1 km/h 75 % 0.0 mm
21:50 12.3 °C 8.4 °C 1019.9 hPa WSW 3.2 km/h 3.2 km/h 77 % 0.0 mm
21:54 15.2 °C 10.8 °C 1019.9 hPa ENE 9.3 km/h 9.3 km/h 75 % 0.0 mm
21:59 15.2 °C 11.0 °C 1018.8 hPa ENE 7.4 km/h 7.4 km/h 76 % 0.0 mm
22:00 12.3 °C 8.4 °C 1019.9 hPa WSW 1.6 km/h 3.2 km/h 77 % 0.0 mm
22:04 15.2 °C 11.0 °C 1018.8 hPa ENE 7.4 km/h 7.4 km/h 76 % 0.0 mm
22:09 15.1 °C 10.9 °C 1018.8 hPa NE 9.3 km/h 9.3 km/h 76 % 0.0 mm
22:10 12.2 °C 8.5 °C 1019.9 hPa Calm     78 % 0.0 mm
22:14 15.0 °C 10.8 °C 1019.9 hPa ENE 11.1 km/h 11.1 km/h 76 % 0.0 mm
22:19 15.0 °C 10.8 °C 1019.9 hPa East 7.4 km/h 7.4 km/h 76 % 0.0 mm
22:20 12.0 °C 8.3 °C 1019.9 hPa SW 1.6 km/h 3.2 km/h 78 % 0.0 mm
22:24 15.0 °C 10.8 °C 1019.9 hPa NNE 3.9 km/h 3.9 km/h 76 % 0.0 mm
22:29 14.9 °C 10.7 °C 1019.9 hPa NNE 5.6 km/h 5.6 km/h 76 % 0.0 mm
22:30 11.8 °C 8.1 °C 1019.9 hPa Calm   3.2 km/h 78 % 0.0 mm
22:35 14.9 °C 10.7 °C 1019.9 hPa ESE 7.4 km/h 7.4 km/h 76 % 0.0 mm
22:40 14.8 °C 10.6 °C 1019.9 hPa East 5.6 km/h 5.6 km/h 76 % 0.0 mm
22:45 14.7 °C 10.5 °C 1019.9 hPa ENE 5.8 km/h 5.8 km/h 76 % 0.0 mm
22:50 14.6 °C 10.4 °C 1019.9 hPa NNE 7.4 km/h 7.4 km/h 76 % 0.0 mm
22:55 14.5 °C 10.3 °C 1019.9 hPa NNE 5.6 km/h 6.1 km/h 76 % 0.0 mm
23:00 14.5 °C 10.3 °C 1019.9 hPa ENE 5.6 km/h 5.6 km/h 76 % 0.0 mm
23:05 14.4 °C 10.2 °C 1019.9 hPa NNE 7.4 km/h 7.4 km/h 76 % 0.0 mm
23:10 14.3 °C 10.1 °C 1019.9 hPa NE 3.2 km/h 8.0 km/h 76 % 0.0 mm
23:15 14.3 °C 10.1 °C 1019.9 hPa NE 7.4 km/h 7.4 km/h 76 % 0.0 mm
23:20 14.2 °C 9.8 °C 1019.9 hPa NNE 5.6 km/h 5.6 km/h 75 % 0.0 mm
23:25 14.1 °C 9.7 °C 1019.9 hPa NNE 7.4 km/h 7.4 km/h 75 % 0.0 mm
23:30 14.1 °C 9.7 °C 1019.9 hPa NNE 5.6 km/h 5.6 km/h 75 % 0.0 mm
23:35 14.1 °C 9.7 °C 1019.9 hPa NNE 5.6 km/h 5.6 km/h 75 % 0.0 mm
23:40 14.1 °C 9.7 °C 1019.9 hPa NE 5.6 km/h 5.6 km/h 75 % 0.0 mm
23:45 14.0 °C 9.6 °C 1019.9 hPa NE 7.4 km/h 7.4 km/h 75 % 0.0 mm
23:50 14.0 °C 9.6 °C 1019.9 hPa NNE 6.4 km/h 6.4 km/h 75 % 0.0 mm
23:55 14.0 °C 9.6 °C 1019.9 hPa ENE 5.6 km/h 5.6 km/h 75 % 0.0 mm
Meteo Sesrovires
Elogis d' Weather Underground - 3.5 mb

Guio original per  Jim McMurry - jmcmurry@mwt.net Adaptat per a la plantilla per  Wim van der Kuil - Leuven-Template.eu

Trobareu la nostra informacio del temps tambe a:

Weather Underground

AWEKAS